Time;durP1;ratioP1;P1;durP2;ratioP2;P2;SDS_P1;SDS_P2;PMS_P1;PMS_P2;Temp;Humidity;BMP_temperature;BMP_pressure;BME280_temperature;BME280_humidity;BME280_pressure;Samples;Min_cycle;Max_cycle;Signal;HPM_P1;HPM_P2
2022/12/12 00:00:52;;;;;;;41.78;21.70;;;3.10;99.90;;;;;;5079924;28;20272;-80
2022/12/12 00:03:18;;;;;;;44.65;22.20;;;3.10;99.90;;;;;;5080016;28;20025;-79
2022/12/12 00:05:44;;;;;;;43.58;22.27;;;3.00;99.90;;;;;;5079435;28;20021;-79
2022/12/12 00:08:10;;;;;;;42.72;22.33;;;3.00;99.90;;;;;;5080142;28;20474;-78
2022/12/12 00:10:36;;;;;;;38.85;20.73;;;3.00;99.90;;;;;;5079806;28;20016;-79
2022/12/12 00:13:02;;;;;;;44.50;21.52;;;3.00;99.90;;;;;;5079784;28;20024;-79
2022/12/12 00:15:28;;;;;;;43.08;21.75;;;3.00;99.90;;;;;;5078828;28;20079;-79
2022/12/12 00:17:55;;;;;;;48.80;24.08;;;3.00;99.90;;;;;;5073874;28;20427;-78
2022/12/12 00:20:20;;;;;;;59.88;27.30;;;3.00;99.90;;;;;;5073547;28;20032;-80
2022/12/12 00:22:46;;;;;;;57.83;28.50;;;3.00;99.90;;;;;;5068187;28;20033;-79
2022/12/12 00:25:12;;;;;;;57.47;28.98;;;3.00;99.90;;;;;;5074881;28;20047;-79
2022/12/12 00:27:38;;;;;;;48.03;24.38;;;3.00;99.90;;;;;;5078968;28;20021;-79
2022/12/12 00:30:05;;;;;;;47.10;24.40;;;2.90;99.90;;;;;;5076622;28;20099;-79
2022/12/12 00:32:32;;;;;;;45.13;22.63;;;2.80;99.90;;;;;;5059734;28;20029;-79
2022/12/12 00:34:58;;;;;;;48.30;23.42;;;2.90;99.90;;;;;;5059640;28;20029;-79
2022/12/12 00:37:23;;;;;;;51.38;24.17;;;2.80;99.90;;;;;;5066305;28;20098;-78
2022/12/12 00:39:49;;;;;;;43.33;22.50;;;2.80;99.90;;;;;;5066934;28;20035;-80
2022/12/12 00:42:15;;;;;;;43.45;22.67;;;2.80;99.90;;;;;;5059567;28;20025;-79
2022/12/12 00:44:41;;;;;;;51.85;24.67;;;2.80;99.90;;;;;;5058515;28;20376;-80
2022/12/12 00:47:07;;;;;;;46.72;24.92;;;2.70;99.90;;;;;;5059166;28;20048;-79
2022/12/12 00:49:33;;;;;;;44.45;23.85;;;2.80;99.90;;;;;;5066678;28;20482;-79
2022/12/12 00:51:59;;;;;;;54.85;25.77;;;2.60;99.90;;;;;;5061773;28;20060;-79
2022/12/12 00:54:24;;;;;;;43.25;22.75;;;2.60;99.90;;;;;;5066808;28;20060;-79
2022/12/12 00:56:50;;;;;;;51.38;25.92;;;2.70;99.90;;;;;;5066489;28;20023;-79
2022/12/12 00:59:16;;;;;;;47.15;24.08;;;2.70;99.90;;;;;;5063685;28;20066;-79
2022/12/12 01:01:44;;;;;;;49.17;26.30;;;2.70;99.90;;;;;;5062180;28;20143;-79
2022/12/12 01:04:10;;;;;;;47.92;25.30;;;2.70;99.90;;;;;;5072268;28;20439;-78
2022/12/12 01:06:35;;;;;;;42.72;22.98;;;2.60;99.90;;;;;;5073684;28;20024;-81
2022/12/12 01:09:01;;;;;;;41.85;21.20;;;2.50;99.90;;;;;;5075760;28;20495;-80
2022/12/12 01:11:27;;;;;;;43.05;21.80;;;2.40;99.90;;;;;;5072950;28;20050;-79
2022/12/12 01:13:54;;;;;;;49.97;24.98;;;2.40;99.90;;;;;;5067928;28;20028;-78
2022/12/12 01:16:22;;;;;;;46.15;25.38;;;2.30;99.90;;;;;;5074646;28;20020;-78
2022/12/12 01:18:47;;;;;;;41.85;23.05;;;2.20;99.90;;;;;;5074703;28;20367;-78
2022/12/12 01:21:15;;;;;;;50.35;27.05;;;2.10;99.90;;;;;;5075572;28;20440;-82
2022/12/12 01:23:41;;;;;;;50.80;26.40;;;2.10;99.90;;;;;;5076038;28;20064;-79
2022/12/12 01:26:17;;;;;;;49.25;25.13;;;2.10;99.90;;;;;;5075889;28;20027;-80
2022/12/12 01:28:43;;;;;;;50.47;25.58;;;2.00;99.90;;;;;;5074718;28;20052;-80
2022/12/12 01:31:09;;;;;;;52.10;27.98;;;1.90;99.90;;;;;;5076092;28;20021;-79
2022/12/12 01:33:35;;;;;;;56.80;28.20;;;1.90;99.90;;;;;;5075757;28;20029;-80
2022/12/12 01:36:01;;;;;;;52.72;27.73;;;1.90;99.90;;;;;;5075623;28;20047;-79
2022/12/12 01:38:27;;;;;;;47.95;25.17;;;2.00;99.90;;;;;;5075398;28;20469;-79
2022/12/12 01:40:53;;;;;;;47.72;25.80;;;1.90;99.90;;;;;;5075737;28;20020;-79
2022/12/12 01:43:21;;;;;;;50.38;25.98;;;1.90;99.90;;;;;;5075549;28;20033;-79
2022/12/12 01:46:01;;;;;;;47.90;27.15;;;1.90;99.90;;;;;;5075264;28;20028;-79
2022/12/12 01:48:39;;;;;;;49.92;27.25;;;1.90;99.90;;;;;;5075579;28;20063;-78
2022/12/12 01:51:14;;;;;;;50.22;26.17;;;1.80;99.90;;;;;;5074313;28;20032;-79
2022/12/12 01:53:40;;;;;;;56.63;28.98;;;1.70;99.90;;;;;;5075472;28;20032;-80
2022/12/12 01:56:11;;;;;;;57.30;29.02;;;1.70;99.90;;;;;;5075237;28;20074;-80
2022/12/12 01:58:43;;;;;;;60.55;30.23;;;1.70;99.90;;;;;;5075223;28;20078;-78
2022/12/12 02:01:09;;;;;;;59.97;30.48;;;1.70;99.90;;;;;;5074007;28;20031;-79
2022/12/12 02:03:36;;;;;;;58.67;29.20;;;1.70;99.90;;;;;;5075162;28;20020;-79
2022/12/12 02:06:07;;;;;;;62.22;30.50;;;1.70;99.90;;;;;;5075011;28;20017;-81
2022/12/12 02:08:33;;;;;;;67.40;30.00;;;1.70;99.90;;;;;;5073801;28;20024;-78
2022/12/12 02:11:00;;;;;;;61.35;30.13;;;1.70;99.90;;;;;;5073606;28;20021;-79
2022/12/12 02:13:28;;;;;;;63.22;31.98;;;1.70;99.90;;;;;;5074629;28;20150;-78
2022/12/12 02:16:18;;;;;;;69.45;33.30;;;1.70;99.90;;;;;;5075262;28;20031;-79
2022/12/12 02:18:59;;;;;;;73.78;36.17;;;1.60;99.90;;;;;;5074739;28;20032;-77
2022/12/12 02:21:51;;;;;;;62.30;29.80;;;1.60;99.90;;;;;;5075232;28;20028;-79
2022/12/12 02:24:32;;;;;;;55.42;28.88;;;1.60;99.90;;;;;;5074792;28;20078;-78
2022/12/12 02:27:28;;;;;;;58.17;30.47;;;1.50;99.90;;;;;;5073685;28;20031;-79
2022/12/12 02:30:05;;;;;;;65.82;30.85;;;1.40;99.90;;;;;;5075056;28;20020;-79
2022/12/12 02:32:55;;;;;;;59.78;30.98;;;1.50;99.90;;;;;;5073208;28;20455;-79
2022/12/12 02:35:27;;;;;;;66.70;32.85;;;1.50;99.90;;;;;;5066099;28;20027;-78
2022/12/12 02:37:59;;;;;;;;;;;1.50;99.90;;;;;;5061626;28;20028;-79
2022/12/12 02:40:48;;;;;;;69.88;34.88;;;1.50;99.90;;;;;;5055592;28;19947;-80
2022/12/12 02:43:32;;;;;;;77.07;36.28;;;1.50;99.90;;;;;;5073716;28;20024;-78
2022/12/12 02:46:08;;;;;;;80.22;37.05;;;1.40;99.90;;;;;;5073600;28;20070;-78
2022/12/12 02:48:42;;;;;;;67.50;32.88;;;1.40;99.90;;;;;;5059279;28;20017;-78
2022/12/12 02:51:11;;;;;;;61.75;30.83;;;1.50;99.90;;;;;;5055352;28;20021;-78
2022/12/12 02:53:37;;;;;;;68.82;33.22;;;1.40;99.90;;;;;;5053978;28;20040;-78
2022/12/12 02:56:06;;;;;;;69.40;34.40;;;1.50;99.90;;;;;;5067056;28;20021;-79
2022/12/12 02:58:35;;;;;;;66.88;31.90;;;1.50;99.90;;;;;;5073815;28;20024;-78
2022/12/12 03:01:15;;;;;;;69.75;33.13;;;1.50;99.90;;;;;;5064776;28;20048;-78
2022/12/12 03:10:08;;;;;;;56.95;30.35;;;1.40;99.90;;;;;;5058582;28;20506;-77
2022/12/12 03:13:02;;;;;;;60.00;30.23;;;1.40;99.90;;;;;;5065432;28;20036;-78
2022/12/12 03:15:43;;;;;;;54.05;28.20;;;1.40;99.90;;;;;;5065481;28;20023;-78
2022/12/12 03:18:40;;;;;;;50.47;26.70;;;1.50;99.90;;;;;;5052441;28;20055;-77
2022/12/12 03:21:16;;;;;;;52.10;26.77;;;1.50;99.90;;;;;;5057960;28;20029;-77
2022/12/12 03:23:49;;;;;;;49.42;25.45;;;1.50;99.90;;;;;;5054828;28;20115;-78
2022/12/12 03:26:23;;;;;;;50.95;27.52;;;1.50;99.90;;;;;;5053278;28;20029;-79
2022/12/12 03:29:01;;;;;;;53.80;25.92;;;1.50;99.90;;;;;;5061282;28;20048;-78
2022/12/12 03:31:31;;;;;;;48.45;24.98;;;1.40;99.90;;;;;;5053548;28;20025;-79
2022/12/12 03:34:03;;;;;;;42.53;24.20;;;1.40;99.90;;;;;;5054059;28;20032;-78
2022/12/12 03:36:35;;;;;;;42.95;22.98;;;1.30;99.90;;;;;;5061300;28;20112;-78
2022/12/12 03:39:07;;;;;;;48.67;24.60;;;1.30;99.90;;;;;;5057364;28;20035;-78
2022/12/12 03:41:38;;;;;;;46.40;24.50;;;1.30;99.90;;;;;;5054301;28;20032;-79
2022/12/12 03:44:26;;;;;;;48.67;26.05;;;1.10;99.90;;;;;;5066459;28;20036;-79
2022/12/12 03:47:04;;;;;;;43.03;22.48;;;1.10;99.90;;;;;;5069599;28;20055;-80
2022/12/12 03:49:43;;;;;;;44.70;23.30;;;1.00;99.90;;;;;;5072541;28;20017;-79
2022/12/12 03:52:27;;;;;;;43.00;22.17;;;1.00;99.90;;;;;;5072569;28;20074;-78
2022/12/12 03:55:12;;;;;;;44.17;23.55;;;0.90;99.90;;;;;;5072206;28;20033;-77
2022/12/12 03:57:59;;;;;;;46.20;25.33;;;1.00;99.90;;;;;;5073071;28;20017;-78
2022/12/12 04:00:28;;;;;;;43.80;23.23;;;1.00;99.90;;;;;;5069982;28;20043;-78
2022/12/12 04:03:25;;;;;;;48.22;24.05;;;0.90;99.90;;;;;;5053433;28;20075;-78
2022/12/12 04:12:57;;;;;;;48.70;25.25;;;0.90;99.90;;;;;;5073011;28;20031;-77
2022/12/12 04:14:58;;;;;;;46.63;23.83;;;1.00;99.90;;;;;;5073134;28;20032;-78
2022/12/12 04:17:55;;;;;;;42.50;23.63;;;1.00;99.90;;;;;;5073351;28;20119;-78
2022/12/12 04:23:52;;;;;;;38.42;21.33;;;0.80;99.90;;;;;;5064708;28;20035;-77
2022/12/12 04:26:38;;;;;;;35.08;19.35;;;0.80;99.90;;;;;;5055928;28;20104;-79
2022/12/12 04:29:38;;;;;;;52.53;26.38;;;0.90;99.90;;;;;;5055732;28;20017;-78
2022/12/12 04:32:18;;;;;;;37.30;19.05;;;0.80;99.90;;;;;;5064957;28;20020;-78
2022/12/12 04:34:53;;;;;;;40.30;20.08;;;0.80;99.90;;;;;;5057864;28;20023;-78
2022/12/12 04:37:30;;;;;;;31.45;17.48;;;0.90;99.90;;;;;;5056564;28;20021;-79
2022/12/12 04:39:59;;;;;;;38.72;18.80;;;0.90;99.90;;;;;;5057026;28;20467;-79
2022/12/12 04:42:31;;;;;;;37.22;20.15;;;0.90;99.90;;;;;;5056549;28;20070;-78
2022/12/12 04:45:01;;;;;;;;;;;0.90;99.90;;;;;;5070199;28;20033;-78
2022/12/12 04:47:30;;;;;;;37.22;19.50;;;1.00;99.90;;;;;;5061327;28;19908;-77
2022/12/12 04:49:58;;;;;;;44.78;23.80;;;0.90;99.90;;;;;;5056518;28;20525;-79
2022/12/12 04:52:26;;;;;;;47.85;25.13;;;0.90;99.90;;;;;;5061813;28;20020;-79
2022/12/12 04:55:26;;;;;;;48.85;25.65;;;0.90;99.90;;;;;;5075177;28;20490;-77
2022/12/12 04:57:53;;;;;;;40.47;21.38;;;0.90;99.90;;;;;;5037950;28;20041;-79
2022/12/12 05:00:21;;;;;;;39.20;20.70;;;0.80;99.90;;;;;;5035901;28;20033;-77
2022/12/12 05:02:47;;;;;;;46.45;23.70;;;0.80;99.90;;;;;;5036569;28;20064;-79
2022/12/12 05:05:20;;;;;;;45.75;23.17;;;0.80;99.90;;;;;;5052475;28;20063;-78
2022/12/12 05:07:53;;;;;;;44.28;23.42;;;0.80;99.90;;;;;;5017857;28;20033;-77
2022/12/12 05:10:19;;;;;;;48.72;25.52;;;0.80;99.90;;;;;;5040323;28;20025;-77
2022/12/12 05:12:50;;;;;;;63.28;30.92;;;0.80;99.90;;;;;;5052713;28;20063;-78
2022/12/12 05:15:18;;;;;;;51.78;28.17;;;0.80;99.90;;;;;;5053164;28;20029;-77
2022/12/12 05:17:59;;;;;;;40.25;22.23;;;0.90;99.90;;;;;;5045993;28;20048;-79
2022/12/12 05:20:25;;;;;;;42.38;22.05;;;0.90;99.90;;;;;;5052844;28;20029;-78
2022/12/12 05:22:50;;;;;;;36.75;20.70;;;0.90;99.90;;;;;;5034395;28;20480;-78
2022/12/12 05:25:16;;;;;;;35.70;20.92;;;0.80;99.90;;;;;;5052494;28;20044;-78
2022/12/12 05:27:42;;;;;;;40.00;20.80;;;0.90;99.90;;;;;;5053199;28;20060;-78
2022/12/12 05:30:09;;;;;;;42.20;23.20;;;0.90;99.90;;;;;;5034382;28;20414;-78
2022/12/12 05:32:34;;;;;;;51.45;27.05;;;0.90;99.90;;;;;;5048696;28;20029;-78
2022/12/12 05:35:00;;;;;;;54.25;28.20;;;0.90;99.90;;;;;;5055552;28;20410;-79
2022/12/12 05:37:26;;;;;;;201.13;71.28;;;0.90;99.90;;;;;;5070083;28;20299;-78
2022/12/12 05:39:52;;;;;;;171.20;63.75;;;0.90;99.90;;;;;;5075903;28;20028;-78
2022/12/12 05:42:18;;;;;;;163.05;67.13;;;0.90;99.90;;;;;;5075642;28;20062;-79
2022/12/12 05:44:44;;;;;;;91.68;43.33;;;0.90;99.90;;;;;;5074706;28;20036;-79
2022/12/12 05:47:09;;;;;;;70.80;33.58;;;0.90;99.90;;;;;;5075417;28;20029;-78
2022/12/12 05:49:35;;;;;;;48.63;25.70;;;0.90;99.90;;;;;;5075685;28;20089;-79
2022/12/12 05:52:01;;;;;;;48.38;26.17;;;0.80;99.90;;;;;;5074144;28;20025;-78
2022/12/12 05:54:26;;;;;;;56.53;29.35;;;0.80;99.90;;;;;;5075185;28;20075;-79
2022/12/12 05:56:52;;;;;;;55.25;28.45;;;0.80;99.90;;;;;;5075270;28;20017;-77
2022/12/12 05:59:18;;;;;;;54.38;28.90;;;0.90;99.90;;;;;;5075304;28;20391;-78
2022/12/12 06:01:44;;;;;;;49.92;27.35;;;0.90;99.90;;;;;;5075170;28;20024;-78
2022/12/12 06:04:10;;;;;;;49.58;27.63;;;0.80;99.90;;;;;;5075148;28;20048;-80
2022/12/12 06:06:35;;;;;;;50.10;28.23;;;0.90;99.90;;;;;;5074997;28;20027;-79
2022/12/12 06:09:01;;;;;;;61.40;33.30;;;0.90;99.90;;;;;;5061841;28;20083;-80
2022/12/12 06:11:27;;;;;;;71.20;34.55;;;0.90;99.90;;;;;;5069870;28;20017;-78
2022/12/12 06:13:53;;;;;;;58.47;31.52;;;0.90;99.90;;;;;;5054815;28;20029;-78
2022/12/12 06:16:19;;;;;;;64.28;35.47;;;0.90;99.90;;;;;;5062545;28;20032;-80
2022/12/12 06:18:50;;;;;;;66.93;37.08;;;0.80;99.90;;;;;;5067817;28;20024;-79
2022/12/12 06:21:16;;;;;;;74.28;35.90;;;0.90;99.90;;;;;;5072237;28;20020;-79
2022/12/12 06:23:42;;;;;;;62.83;35.08;;;0.90;99.90;;;;;;5074697;28;20044;-78
2022/12/12 06:26:10;;;;;;;56.38;31.70;;;0.90;99.90;;;;;;5074371;28;20048;-78
2022/12/12 06:28:37;;;;;;;67.07;34.75;;;0.80;99.90;;;;;;5064963;28;20090;-78
2022/12/12 06:31:04;;;;;;;58.78;31.65;;;0.90;99.90;;;;;;5061084;28;20039;-78
2022/12/12 06:33:34;;;;;;;60.67;34.10;;;0.90;99.90;;;;;;5072906;28;20046;-78
2022/12/12 06:36:23;;;;;;;58.10;31.58;;;0.90;99.90;;;;;;5074118;28;20115;-77
2022/12/12 06:38:54;;;;;;;63.97;34.38;;;0.90;99.90;;;;;;5074642;28;20025;-78
2022/12/12 06:41:21;;;;;;;58.72;32.30;;;0.90;99.90;;;;;;5073191;28;20043;-77
2022/12/12 06:43:48;;;;;;;74.70;38.20;;;0.80;99.90;;;;;;5074290;28;20024;-78
2022/12/12 06:46:21;;;;;;;69.20;37.30;;;0.90;99.90;;;;;;5073031;28;20020;-77
2022/12/12 06:48:48;;;;;;;67.07;36.40;;;0.90;99.90;;;;;;5073310;28;20033;-78
2022/12/12 06:51:16;;;;;;;63.67;36.70;;;0.90;99.90;;;;;;5073880;28;20100;-78
2022/12/12 06:53:42;;;;;;;73.60;38.08;;;0.90;99.90;;;;;;5074219;28;20032;-78
2022/12/12 06:56:12;;;;;;;92.57;48.60;;;0.90;99.90;;;;;;5072775;28;20078;-79
2022/12/12 06:58:37;;;;;;;92.00;49.15;;;1.00;99.90;;;;;;5074538;28;20070;-78
2022/12/12 07:01:05;;;;;;;81.10;43.35;;;0.90;99.90;;;;;;5072793;28;20021;-78
2022/12/12 07:03:31;;;;;;;84.63;45.85;;;1.00;99.90;;;;;;5073708;28;20526;-79
2022/12/12 07:05:56;;;;;;;68.15;37.42;;;1.10;99.90;;;;;;5074422;28;20215;-78
2022/12/12 07:08:22;;;;;;;62.40;32.63;;;1.10;99.90;;;;;;5072739;28;20070;-78
2022/12/12 07:10:48;;;;;;;58.17;32.17;;;1.10;99.90;;;;;;5073526;28;20032;-77
2022/12/12 07:13:14;;;;;;;61.67;34.30;;;1.10;99.90;;;;;;5073965;28;20040;-77
2022/12/12 07:15:48;;;;;;;64.50;33.80;;;1.10;99.90;;;;;;5073677;28;20020;-79
2022/12/12 07:18:15;;;;;;;70.57;36.17;;;1.10;99.90;;;;;;5073401;28;20038;-78
2022/12/12 07:20:43;;;;;;;90.05;45.70;;;1.10;99.90;;;;;;5073824;28;20108;-79
2022/12/12 07:23:10;;;;;;;83.95;41.42;;;1.10;99.90;;;;;;5073878;28;20331;-77
2022/12/12 07:25:38;;;;;;;73.38;35.30;;;1.20;99.90;;;;;;5072429;28;20446;-79
2022/12/12 07:28:04;;;;;;;70.80;37.33;;;1.20;99.90;;;;;;5072649;28;20103;-77
2022/12/12 07:30:30;;;;;;;73.32;37.38;;;1.20;99.90;;;;;;5073787;28;20112;-78
2022/12/12 07:32:56;;;;;;;50.63;28.70;;;1.30;99.90;;;;;;5073480;28;20036;-77
2022/12/12 07:35:22;;;;;;;63.88;33.00;;;1.20;99.90;;;;;;5073533;28;20032;-78
2022/12/12 07:37:48;;;;;;;59.92;31.65;;;1.30;99.90;;;;;;5072875;28;20332;-77
2022/12/12 07:40:14;;;;;;;64.82;32.42;;;1.30;99.90;;;;;;5073394;28;20474;-78
2022/12/12 07:42:40;;;;;;;64.28;32.17;;;1.40;99.90;;;;;;5072649;28;20111;-79
2022/12/12 07:45:06;;;;;;;61.65;29.70;;;1.40;99.90;;;;;;5072441;28;20071;-77
2022/12/12 07:47:32;;;;;;;61.40;32.42;;;1.40;99.90;;;;;;5073331;28;20028;-79
2022/12/12 07:49:58;;;;;;;57.60;32.08;;;1.40;99.90;;;;;;5073277;28;20023;-78
2022/12/12 07:52:24;;;;;;;59.53;32.17;;;1.50;99.90;;;;;;5073738;28;20521;-78
2022/12/12 07:54:49;;;;;;;49.30;25.48;;;1.50;99.90;;;;;;5072455;28;20397;-78
2022/12/12 07:57:15;;;;;;;52.35;28.38;;;1.30;99.90;;;;;;5072747;28;20062;-78
2022/12/12 07:59:41;;;;;;;52.33;26.25;;;1.40;99.90;;;;;;5073950;28;20020;-77
2022/12/12 08:02:09;;;;;;;53.70;28.50;;;1.40;99.90;;;;;;5077310;28;20111;-79
2022/12/12 08:04:34;;;;;;;48.78;25.73;;;1.50;99.90;;;;;;5076132;28;20082;-78
2022/12/12 08:07:00;;;;;;;43.47;23.65;;;1.40;99.90;;;;;;5077608;28;20537;-80
2022/12/12 08:09:26;;;;;;;81.65;40.80;;;1.30;99.90;;;;;;5077691;28;20020;-80
2022/12/12 08:11:56;;;;;;;50.55;27.42;;;1.30;99.90;;;;;;5077381;28;20024;-80
2022/12/12 08:14:23;;;;;;;115.68;59.83;;;1.40;99.90;;;;;;5076343;28;20044;-79
2022/12/12 08:16:48;;;;;;;125.15;61.85;;;1.40;99.90;;;;;;5076871;28;20053;-79
2022/12/12 08:19:14;;;;;;;124.47;63.70;;;1.50;99.90;;;;;;5077019;28;20101;-81
2022/12/12 08:21:41;;;;;;;83.50;47.25;;;1.50;99.90;;;;;;5077065;28;20025;-79
2022/12/12 08:24:10;;;;;;;59.83;34.83;;;1.50;99.90;;;;;;5076842;28;20111;-79
2022/12/12 08:26:36;;;;;;;79.97;46.67;;;1.50;99.90;;;;;;5076936;28;20017;-79
2022/12/12 08:29:02;;;;;;;130.65;74.95;;;1.50;99.90;;;;;;5076586;28;20052;-80
2022/12/12 08:31:28;;;;;;;93.90;47.90;;;1.50;99.90;;;;;;5076958;28;20016;-78
2022/12/12 08:33:54;;;;;;;80.72;39.00;;;1.50;99.90;;;;;;5076899;28;20032;-77
2022/12/12 08:36:28;;;;;;;87.25;42.47;;;1.50;99.90;;;;;;5076485;28;20075;-77
2022/12/12 08:38:55;;;;;;;64.65;33.42;;;1.50;99.90;;;;;;5076585;28;20066;-77
2022/12/12 08:41:21;;;;;;;91.65;47.58;;;1.60;99.90;;;;;;5076652;28;20065;-79
2022/12/12 08:43:48;;;;;;;79.80;41.50;;;1.70;99.90;;;;;;5075613;28;20379;-79
2022/12/12 08:46:15;;;;;;;71.57;39.92;;;1.70;99.90;;;;;;5076940;28;20028;-77
2022/12/12 08:48:41;;;;;;;79.78;41.15;;;1.70;99.90;;;;;;5076495;28;20143;-78
2022/12/12 08:51:07;;;;;;;74.78;38.85;;;1.80;99.90;;;;;;5076710;28;20056;-79
2022/12/12 08:53:32;;;;;;;61.78;34.17;;;1.90;99.90;;;;;;5076153;28;20040;-78
2022/12/12 08:55:58;;;;;;;51.03;29.00;;;1.90;99.90;;;;;;5076112;28;20035;-78
2022/12/12 08:58:24;;;;;;;81.63;45.20;;;1.80;99.90;;;;;;5076411;28;20028;-79
2022/12/12 09:00:50;;;;;;;84.28;47.10;;;1.90;99.90;;;;;;5076433;28;20027;-79
2022/12/12 09:03:17;;;;;;;62.33;30.55;;;1.90;99.90;;;;;;5074941;28;20035;-79
2022/12/12 09:05:44;;;;;;;75.97;35.50;;;1.90;99.90;;;;;;5076510;28;20020;-81
2022/12/12 09:08:11;;;;;;;60.90;29.08;;;1.80;99.90;;;;;;5076249;28;20111;-80
2022/12/12 09:10:37;;;;;;;82.25;38.03;;;1.80;99.90;;;;;;5076076;28;20471;-78
2022/12/12 09:13:05;;;;;;;93.80;43.05;;;1.90;99.90;;;;;;5074831;28;20454;-78
2022/12/12 09:15:37;;;;;;;79.75;38.13;;;2.00;99.90;;;;;;5076159;28;20020;-79
2022/12/12 09:18:03;;;;;;;75.18;36.55;;;2.00;99.90;;;;;;5076355;28;20131;-79
2022/12/12 09:20:29;;;;;;;58.17;29.63;;;2.00;99.90;;;;;;5074854;28;20135;-79
2022/12/12 09:22:55;;;;;;;45.55;25.50;;;2.00;99.90;;;;;;5076376;28;20029;-79
2022/12/12 09:25:21;;;;;;;63.60;33.00;;;2.00;99.90;;;;;;5075584;28;20028;-80
2022/12/12 09:27:47;;;;;;;72.95;36.83;;;2.10;99.90;;;;;;5075959;28;20057;-78
2022/12/12 09:30:13;;;;;;;68.68;34.05;;;2.00;99.90;;;;;;5074493;28;20455;-79
2022/12/12 09:32:40;;;;;;;70.13;33.90;;;2.10;99.90;;;;;;5075606;28;20021;-79
2022/12/12 09:35:06;;;;;;;76.18;34.20;;;2.00;99.90;;;;;;5076050;28;20103;-79
2022/12/12 09:37:32;;;;;;;64.32;34.05;;;2.10;99.90;;;;;;5075920;28;20020;-78
2022/12/12 09:39:58;;;;;;;73.35;37.72;;;2.00;99.90;;;;;;5075518;28;20023;-79
2022/12/12 09:42:27;;;;;;;81.85;41.25;;;2.10;99.90;;;;;;5075348;28;20027;-78
2022/12/12 09:44:57;;;;;;;66.80;35.15;;;2.10;99.90;;;;;;5074283;28;20016;-79
2022/12/12 09:47:32;;;;;;;78.03;40.90;;;2.20;99.90;;;;;;5074138;28;20024;-78
2022/12/12 09:50:03;;;;;;;91.10;43.40;;;2.20;99.90;;;;;;5075518;28;20455;-79
2022/12/12 09:52:35;;;;;;;45.03;25.92;;;2.30;99.90;;;;;;5075656;28;20059;-79
2022/12/12 09:55:36;;;;;;;54.30;28.85;;;2.20;99.90;;;;;;5075590;28;20024;-79
2022/12/12 09:58:34;;;;;;;79.68;38.53;;;2.20;99.90;;;;;;5053312;28;20043;-78
2022/12/12 10:01:10;;;;;;;52.83;29.20;;;2.30;99.90;;;;;;5052416;28;20063;-79
2022/12/12 10:04:00;;;;;;;56.22;28.27;;;2.30;99.90;;;;;;5052984;28;20447;-78
2022/12/12 10:06:35;;;;;;;55.90;28.92;;;2.30;99.90;;;;;;5036001;28;20127;-78
2022/12/12 10:09:21;;;;;;;57.17;28.85;;;2.40;99.90;;;;;;5053193;28;20040;-79
2022/12/12 10:11:53;;;;;;;52.45;28.08;;;2.40;99.90;;;;;;5036155;28;20033;-78
2022/12/12 10:14:33;;;;;;;63.15;34.00;;;2.40;99.90;;;;;;5052574;28;20040;-79
2022/12/12 10:17:00;;;;;;;53.60;29.50;;;2.40;99.90;;;;;;5052499;28;20476;-79
2022/12/12 10:19:29;;;;;;;54.85;28.92;;;2.30;99.90;;;;;;5052487;28;20090;-79
2022/12/12 10:22:13;;;;;;;53.90;29.15;;;2.30;99.90;;;;;;5052574;28;20032;-80
2022/12/12 10:24:45;;;;;;;56.58;30.00;;;2.40;99.90;;;;;;5052774;28;20416;-79
2022/12/12 10:27:12;;;;;;;65.95;34.70;;;2.30;99.90;;;;;;5035634;28;20037;-78
2022/12/12 10:29:43;;;;;;;84.22;36.83;;;2.30;99.90;;;;;;5035880;28;20415;-78
2022/12/12 10:32:31;;;;;;;51.70;28.70;;;2.30;99.90;;;;;;5052686;28;20031;-79
2022/12/12 10:35:31;;;;;;;68.95;34.88;;;2.30;99.90;;;;;;5069217;28;20051;-78
2022/12/12 10:38:24;;;;;;;80.32;40.88;;;2.30;99.90;;;;;;5063966;28;20028;-78
2022/12/12 10:41:02;;;;;;;80.32;43.15;;;2.30;99.90;;;;;;5074258;28;20471;-78
2022/12/12 10:43:37;;;;;;;149.52;74.72;;;2.40;99.90;;;;;;5074555;28;20055;-78
2022/12/12 10:46:14;;;;;;;150.60;75.05;;;2.40;99.90;;;;;;5072832;28;20116;-78
2022/12/12 10:48:41;;;;;;;127.20;62.47;;;2.50;99.90;;;;;;5074256;28;20024;-79
2022/12/12 10:51:10;;;;;;;158.15;73.78;;;2.50;99.90;;;;;;5073983;28;20414;-79
2022/12/12 10:53:38;;;;;;;160.90;76.35;;;2.40;99.90;;;;;;5074274;28;20029;-79
2022/12/12 10:56:23;;;;;;;64.57;36.88;;;2.40;99.90;;;;;;5073825;28;20020;-79
2022/12/12 10:59:02;;;;;;;66.68;35.50;;;2.40;99.90;;;;;;5073970;28;20019;-78
2022/12/12 11:01:35;;;;;;;76.22;40.08;;;2.30;99.90;;;;;;5073815;28;20027;-78
2022/12/12 11:04:02;;;;;;;69.65;37.95;;;2.30;99.90;;;;;;5074196;28;20029;-78
2022/12/12 11:06:32;;;;;;;60.20;31.92;;;2.40;99.90;;;;;;5073746;28;20021;-77
2022/12/12 11:09:06;;;;;;;55.42;31.77;;;2.40;99.90;;;;;;5073891;28;20142;-77
2022/12/12 11:11:32;;;;;;;58.55;29.55;;;2.40;99.90;;;;;;5073887;28;20021;-77
2022/12/12 11:14:00;;;;;;;61.25;34.05;;;2.40;99.90;;;;;;5073903;28;20040;-81
2022/12/12 11:16:40;;;;;;;82.68;42.10;;;2.40;99.90;;;;;;5073332;28;20098;-78
2022/12/12 11:19:17;;;;;;;57.40;32.13;;;2.40;99.90;;;;;;5074020;28;20107;-78
2022/12/12 11:21:44;;;;;;;49.80;28.80;;;2.30;99.90;;;;;;5074054;28;20016;-77
2022/12/12 11:24:19;;;;;;;63.35;34.42;;;2.30;99.90;;;;;;5073433;28;20021;-79
2022/12/12 11:26:49;;;;;;;54.90;29.40;;;2.30;99.90;;;;;;5074279;28;20020;-79
2022/12/12 11:29:26;;;;;;;81.38;36.08;;;2.30;99.90;;;;;;5072402;28;20025;-78
2022/12/12 11:31:52;;;;;;;65.97;32.28;;;2.40;99.90;;;;;;5073556;28;20032;-79
2022/12/12 11:34:21;;;;;;;76.68;37.22;;;2.40;99.90;;;;;;5072076;28;20074;-78
2022/12/12 11:36:47;;;;;;;161.43;63.90;;;2.40;99.90;;;;;;5072392;28;20103;-79
2022/12/12 11:39:20;;;;;;;93.75;42.65;;;2.40;99.90;;;;;;5073811;28;20074;-79
2022/12/12 11:42:15;;;;;;;62.60;31.60;;;2.50;99.90;;;;;;5074002;28;20032;-78
2022/12/12 11:44:42;;;;;;;75.22;37.78;;;2.40;99.90;;;;;;5072521;28;20051;-79
2022/12/12 11:47:17;;;;;;;100.43;49.30;;;2.30;99.90;;;;;;5073551;28;20347;-78
2022/12/12 11:49:49;;;;;;;87.45;44.25;;;2.30;99.90;;;;;;5073777;28;20020;-79
2022/12/12 11:52:32;;;;;;;120.65;58.90;;;2.30;99.90;;;;;;5073493;28;20017;-79
2022/12/12 11:54:59;;;;;;;96.85;45.90;;;2.40;99.90;;;;;;5073651;28;20032;-78
2022/12/12 11:57:52;;;;;;;131.10;60.80;;;2.30;99.90;;;;;;5073625;28;20533;-79
2022/12/12 12:00:20;;;;;;;125.80;63.05;;;2.40;99.90;;;;;;5072386;28;20028;-79
2022/12/12 12:03:21;;;;;;;111.65;54.80;;;2.30;99.90;;;;;;5073749;28;20478;-79
2022/12/12 12:05:53;;;;;;;85.18;43.10;;;2.40;99.90;;;;;;5073363;28;20035;-79
2022/12/12 12:08:47;;;;;;;135.88;62.53;;;2.30;99.90;;;;;;5073090;28;20031;-77
2022/12/12 12:11:24;;;;;;;100.75;48.85;;;2.30;99.90;;;;;;5073067;28;20020;-79
2022/12/12 12:13:59;;;;;;;78.00;37.92;;;2.30;99.90;;;;;;5073460;28;20029;-79
2022/12/12 12:16:52;;;;;;;93.75;47.65;;;2.20;99.90;;;;;;5071789;28;20035;-78
2022/12/12 12:19:39;;;;;;;86.60;45.08;;;2.20;99.90;;;;;;5073302;28;20067;-79
2022/12/12 12:22:22;;;;;;;73.65;38.90;;;2.20;99.90;;;;;;5073101;28;20047;-79
2022/12/12 12:24:51;;;;;;;75.18;40.85;;;2.20;99.90;;;;;;5073422;28;20467;-78
2022/12/12 12:27:41;;;;;;;86.75;42.13;;;2.30;99.90;;;;;;5072929;28;20021;-78
2022/12/12 12:30:23;;;;;;;101.43;47.63;;;2.30;99.90;;;;;;5073217;28;20411;-78
2022/12/12 12:33:19;;;;;;;89.93;44.85;;;2.40;99.90;;;;;;5073376;28;20016;-78
2022/12/12 12:36:21;;;;;;;61.90;30.42;;;2.40;99.90;;;;;;5073011;28;20032;-77
2022/12/12 12:39:02;;;;;;;56.65;28.73;;;2.40;99.90;;;;;;5072869;28;20028;-79
2022/12/12 12:41:53;;;;;;;67.50;33.70;;;2.50;99.90;;;;;;5073047;28;20025;-78
2022/12/12 12:44:41;;;;;;;48.03;26.98;;;2.50;99.90;;;;;;5072819;28;20021;-79
2022/12/12 12:47:13;;;;;;;75.85;40.67;;;2.40;99.90;;;;;;5075657;28;20024;-80
2022/12/12 12:50:12;;;;;;;98.18;53.42;;;2.50;99.90;;;;;;5076691;28;20409;-80
2022/12/12 12:52:44;;;;;;;86.20;49.30;;;2.60;99.90;;;;;;5071981;28;20120;-79
2022/12/12 12:55:20;;;;;;;82.85;42.55;;;2.70;99.90;;;;;;5076252;28;20103;-80
2022/12/12 12:57:49;;;;;;;93.05;44.13;;;2.70;99.90;;;;;;5076378;28;20123;-79
2022/12/12 13:00:26;;;;;;;88.00;42.28;;;2.70;99.90;;;;;;5076067;28;20074;-80
2022/12/12 13:02:57;;;;;;;54.13;27.63;;;2.70;99.90;;;;;;5076912;28;20082;-78
2022/12/12 13:05:30;;;;;;;50.00;24.35;;;2.80;99.90;;;;;;5076803;28;20017;-78
2022/12/12 13:08:11;;;;;;;54.08;29.00;;;2.80;99.90;;;;;;5075977;28;20029;-80
2022/12/12 13:10:44;;;;;;;53.90;29.10;;;2.80;99.90;;;;;;5076483;28;20370;-79
2022/12/12 13:13:31;;;;;;;63.45;35.08;;;2.70;99.90;;;;;;5076210;28;20028;-80
2022/12/12 13:16:23;;;;;;;51.40;27.17;;;2.70;99.90;;;;;;5074815;28;20021;-79